sensor_id;sensor_type;location;lat;lon;timestamp;temperature;humidity
7984;DHT22;4037;47.980;10.172;2023-12-04T09:36:16;-3.00;99.90
7984;DHT22;4037;47.980;10.172;2023-12-04T09:38:43;-5.50;99.90
7984;DHT22;4037;47.980;10.172;2023-12-04T09:41:09;-5.60;99.90
7984;DHT22;4037;47.980;10.172;2023-12-04T09:43:36;-5.80;99.90
7984;DHT22;4037;47.980;10.172;2023-12-04T09:46:02;-5.90;99.90
7984;DHT22;4037;47.980;10.172;2023-12-04T09:48:29;-5.80;99.90
7984;DHT22;4037;47.980;10.172;2023-12-04T09:50:57;-5.60;99.90
7984;DHT22;4037;47.980;10.172;2023-12-04T09:53:24;-5.60;99.90
7984;DHT22;4037;47.980;10.172;2023-12-04T09:55:50;-5.50;99.90
7984;DHT22;4037;47.980;10.172;2023-12-04T09:58:19;-5.50;99.90
7984;DHT22;4037;47.980;10.172;2023-12-04T10:00:45;-5.40;99.90
7984;DHT22;4037;47.980;10.172;2023-12-04T10:03:11;-5.50;99.90
7984;DHT22;4037;47.980;10.172;2023-12-04T10:05:38;-5.40;99.90
7984;DHT22;4037;47.980;10.172;2023-12-04T10:08:08;-5.40;99.90
7984;DHT22;4037;47.980;10.172;2023-12-04T10:10:33;-5.30;99.90
7984;DHT22;4037;47.980;10.172;2023-12-04T10:13:00;-5.20;99.90
7984;DHT22;4037;47.980;10.172;2023-12-04T10:15:25;-5.10;99.90
7984;DHT22;4037;47.980;10.172;2023-12-04T10:17:52;-5.10;99.90
7984;DHT22;4037;47.980;10.172;2023-12-04T10:20:19;-5.00;99.90
7984;DHT22;4037;47.980;10.172;2023-12-04T10:22:57;-5.00;99.90
7984;DHT22;4037;47.980;10.172;2023-12-04T10:25:26;-5.10;99.90
7984;DHT22;4037;47.980;10.172;2023-12-04T10:27:53;-5.20;99.90
7984;DHT22;4037;47.980;10.172;2023-12-04T10:30:37;-5.20;99.90
7984;DHT22;4037;47.980;10.172;2023-12-04T10:33:04;-4.90;99.90
7984;DHT22;4037;47.980;10.172;2023-12-04T10:35:31;-4.80;99.90
7984;DHT22;4037;47.980;10.172;2023-12-04T10:37:58;-4.80;99.90
7984;DHT22;4037;47.980;10.172;2023-12-04T10:40:29;-4.90;99.90
7984;DHT22;4037;47.980;10.172;2023-12-04T10:45:38;-4.90;99.90
7984;DHT22;4037;47.980;10.172;2023-12-04T10:48:05;-5.00;99.90
7984;DHT22;4037;47.980;10.172;2023-12-04T11:42:43;-4.90;99.90
7984;DHT22;4037;47.980;10.172;2023-12-04T11:45:09;-3.20;99.90
7984;DHT22;4037;47.980;10.172;2023-12-04T11:47:56;-3.20;99.90
7984;DHT22;4037;47.980;10.172;2023-12-04T11:50:25;-3.20;99.90
7984;DHT22;4037;47.980;10.172;2023-12-04T11:52:51;-2.90;99.90
7984;DHT22;4037;47.980;10.172;2023-12-04T11:55:20;-2.50;99.90
7984;DHT22;4037;47.980;10.172;2023-12-04T11:57:45;-2.80;99.90
7984;DHT22;4037;47.980;10.172;2023-12-04T12:05:20;-3.20;99.90
7984;DHT22;4037;47.980;10.172;2023-12-04T12:07:46;-3.20;99.90
7984;DHT22;4037;47.980;10.172;2023-12-04T12:10:12;-3.50;99.90
7984;DHT22;4037;47.980;10.172;2023-12-04T12:12:40;-3.50;99.90
7984;DHT22;4037;47.980;10.172;2023-12-04T12:15:12;-3.30;99.90
7984;DHT22;4037;47.980;10.172;2023-12-04T12:17:38;-3.30;99.90
7984;DHT22;4037;47.980;10.172;2023-12-04T12:20:14;-3.10;99.90
7984;DHT22;4037;47.980;10.172;2023-12-04T12:22:40;-3.20;99.90
7984;DHT22;4037;47.980;10.172;2023-12-04T12:25:10;-3.10;99.90
7984;DHT22;4037;47.980;10.172;2023-12-04T12:27:36;-1.10;99.90
7984;DHT22;4037;47.980;10.172;2023-12-04T12:39:49;-1.00;99.90
